Time;durP1;ratioP1;P1;durP2;ratioP2;P2;SDS_P1;SDS_P2;PMS_P1;PMS_P2;Temp;Humidity;BMP_temperature;BMP_pressure;BME280_temperature;BME280_humidity;BME280_pressure;Samples;Min_cycle;Max_cycle;Signal;HPM_P1;HPM_P2
2022/04/27 00:00:45;;;;;;;20.10;9.98;;;;;;;;;;4971836;28;20369;-63
2022/04/27 00:03:12;;;;;;;17.48;9.45;;;;;;;;;;4937941;28;20387;-63
2022/04/27 00:05:43;;;;;;;22.00;10.27;;;;;;;;;;4971133;28;20033;-63
2022/04/27 00:08:09;;;;;;;21.17;9.73;;;;;;;;;;4938693;28;20500;-62
2022/04/27 00:10:36;;;;;;;18.38;9.68;;;;;;;;;;4936960;28;20483;-62
2022/04/27 00:13:03;;;;;;;19.15;10.40;;;;;;;;;;4972315;28;20554;-63
2022/04/27 00:16:09;;;;;;;23.13;9.43;;;;;;;;;;4953323;28;20441;-62
2022/04/27 00:18:34;;;;;;;19.05;9.70;;;;;;;;;;4971953;28;20029;-63
2022/04/27 00:21:00;;;;;;;17.23;9.52;;;;;;;;;;4971126;28;20183;-64
2022/04/27 00:23:27;;;;;;;18.05;9.45;;;;;;;;;;4953469;28;20132;-62
2022/04/27 00:25:56;;;;;;;19.83;9.40;;;;;;;;;;4953401;28;20476;-64
2022/04/27 00:28:24;;;;;;;21.33;9.40;;;;;;;;;;4970851;28;20081;-63
2022/04/27 00:30:51;;;;;;;16.48;8.80;;;;;;;;;;4953402;28;20474;-64
2022/04/27 00:33:17;;;;;;;20.50;9.15;;;;;;;;;;4971345;28;20376;-63
2022/04/27 00:35:45;;;;;;;20.88;10.20;;;;;;;;;;4971274;28;20052;-63
2022/04/27 00:38:11;;;;;;;19.30;9.20;;;;;;;;;;4921142;28;20453;-63
2022/04/27 00:40:36;;;;;;;18.52;10.05;;;;;;;;;;4936983;28;20491;-63
2022/04/27 00:43:03;;;;;;;17.00;8.68;;;;;;;;;;4970303;28;20116;-63
2022/04/27 00:45:29;;;;;;;18.92;8.68;;;;;;;;;;4952767;28;20033;-63
2022/04/27 00:47:54;;;;;;;20.88;9.63;;;;;;;;;;4971510;28;20546;-63
2022/04/27 00:50:20;;;;;;;17.45;8.82;;;;;;;;;;4970452;28;20349;-64
2022/04/27 00:52:46;;;;;;;17.20;8.77;;;;;;;;;;4969620;28;20665;-63
2022/04/27 00:55:14;;;;;;;19.63;10.02;;;;;;;;;;4952732;28;20437;-63
2022/04/27 00:57:42;;;;;;;18.88;9.45;;;;;;;;;;4970868;28;20534;-63
2022/04/27 01:00:10;;;;;;;20.33;10.43;;;;;;;;;;4963431;28;20045;-63
2022/04/27 01:02:36;;;;;;;16.50;9.02;;;;;;;;;;4971678;28;20358;-62
2022/04/27 01:05:07;;;;;;;15.18;8.43;;;;;;;;;;4970342;28;20468;-63
2022/04/27 01:07:33;;;;;;;18.77;9.40;;;;;;;;;;4969311;28;20461;-64
2022/04/27 01:10:00;;;;;;;19.98;9.57;;;;;;;;;;4967949;28;20322;-63
2022/04/27 01:12:25;;;;;;;16.35;8.60;;;;;;;;;;4936156;28;20459;-64
2022/04/27 01:14:52;;;;;;;18.45;8.82;;;;;;;;;;4970447;28;20421;-62
2022/04/27 01:17:22;;;;;;;18.00;9.40;;;;;;;;;;4936116;28;20503;-63
2022/04/27 01:19:49;;;;;;;17.05;8.95;;;;;;;;;;4953354;28;20337;-63
2022/04/27 01:22:16;;;;;;;20.15;9.70;;;;;;;;;;4951618;28;20483;-63
2022/04/27 01:24:44;;;;;;;19.08;9.05;;;;;;;;;;4969473;28;20397;-63
2022/04/27 01:27:13;;;;;;;18.35;9.43;;;;;;;;;;4952623;28;20108;-63
2022/04/27 01:29:38;;;;;;;21.33;9.38;;;;;;;;;;4968409;28;20490;-62
2022/04/27 01:32:06;;;;;;;17.60;9.88;;;;;;;;;;4969936;28;20401;-62
2022/04/27 01:34:31;;;;;;;17.15;9.07;;;;;;;;;;4952350;28;20034;-64
2022/04/27 01:39:48;;;;;;;16.88;8.25;;;;;;;;;;4929408;28;20383;-63
2022/04/27 01:42:16;;;;;;;15.10;8.00;;;;;;;;;;4971508;28;20340;-64
2022/04/27 01:44:41;;;;;;;15.02;7.90;;;;;;;;;;4970129;28;20432;-63
2022/04/27 01:47:07;;;;;;;16.48;8.20;;;;;;;;;;4969702;28;20341;-63
2022/04/27 01:49:34;;;;;;;21.65;9.40;;;;;;;;;;4970002;28;20419;-63
2022/04/27 01:54:43;;;;;;;18.95;8.63;;;;;;;;;;4955022;28;20517;-63
2022/04/27 01:57:11;;;;;;;19.40;8.98;;;;;;;;;;4967865;28;20353;-63
2022/04/27 01:59:41;;;;;;;22.33;8.20;;;;;;;;;;4969287;28;20641;-63
2022/04/27 02:02:08;;;;;;;17.42;8.30;;;;;;;;;;4968567;28;20077;-63
2022/04/27 02:04:34;;;;;;;20.40;9.40;;;;;;;;;;4952125;28;20397;-63
2022/04/27 02:07:00;;;;;;;17.83;9.45;;;;;;;;;;4968649;28;20108;-63
2022/04/27 02:09:26;;;;;;;17.83;8.70;;;;;;;;;;4970655;28;20314;-63
2022/04/27 02:11:54;;;;;;;16.92;8.82;;;;;;;;;;4970078;28;20360;-63
2022/04/27 02:14:20;;;;;;;15.70;8.47;;;;;;;;;;4969723;28;20475;-63
2022/04/27 02:16:46;;;;;;;17.63;8.45;;;;;;;;;;4969485;28;20587;-63
2022/04/27 02:19:13;;;;;;;15.85;8.70;;;;;;;;;;4968594;28;20400;-62
2022/04/27 02:21:39;;;;;;;14.38;8.23;;;;;;;;;;4970599;28;20061;-62
2022/04/27 02:24:05;;;;;;;17.23;8.55;;;;;;;;;;4969482;28;20433;-63
2022/04/27 02:26:30;;;;;;;22.33;9.68;;;;;;;;;;4969184;28;20025;-64
2022/04/27 02:28:56;;;;;;;15.43;8.68;;;;;;;;;;4967553;28;20502;-63
2022/04/27 02:31:22;;;;;;;14.75;7.65;;;;;;;;;;4969132;28;20025;-63
2022/04/27 02:33:47;;;;;;;16.38;8.40;;;;;;;;;;4969187;28;20348;-63
2022/04/27 02:36:14;;;;;;;16.48;8.32;;;;;;;;;;4968984;28;20030;-63
2022/04/27 02:38:39;;;;;;;17.52;8.90;;;;;;;;;;4969985;28;20405;-63
2022/04/27 02:41:05;;;;;;;16.80;7.95;;;;;;;;;;4968903;28;20440;-64
2022/04/27 02:43:31;;;;;;;21.38;9.90;;;;;;;;;;4969103;28;20476;-63
2022/04/27 02:45:58;;;;;;;16.15;8.35;;;;;;;;;;4970213;28;20495;-62
2022/04/27 02:48:26;;;;;;;16.42;8.60;;;;;;;;;;4968138;28;20025;-63
2022/04/27 02:53:36;;;;;;;17.35;8.77;;;;;;;;;;4969704;28;20193;-63
2022/04/27 02:56:03;;;;;;;15.27;8.35;;;;;;;;;;4970183;28;20030;-63
2022/04/27 02:58:29;;;;;;;16.08;8.60;;;;;;;;;;4951483;28;20392;-63
2022/04/27 03:00:54;;;;;;;17.33;7.95;;;;;;;;;;4968515;28;20069;-62
2022/04/27 03:03:21;;;;;;;16.35;8.90;;;;;;;;;;4950773;28;20486;-63
2022/04/27 03:05:46;;;;;;;17.60;8.25;;;;;;;;;;4970239;28;20321;-63
2022/04/27 03:08:14;;;;;;;16.23;8.68;;;;;;;;;;4968099;28;20369;-64
2022/04/27 03:10:39;;;;;;;16.83;8.60;;;;;;;;;;4969059;28;20104;-63
2022/04/27 03:13:05;;;;;;;16.45;7.90;;;;;;;;;;4973063;28;20535;-62
2022/04/27 03:15:32;;;;;;;17.20;7.80;;;;;;;;;;4973144;28;20495;-62
2022/04/27 03:20:41;;;;;;;14.65;7.97;;;;;;;;;;4974152;28;20427;-62
2022/04/27 03:23:07;;;;;;;13.75;7.80;;;;;;;;;;4972208;28;20413;-63
2022/04/27 03:25:33;;;;;;;14.15;7.47;;;;;;;;;;4972445;28;20424;-63
2022/04/27 03:27:58;;;;;;;14.85;7.55;;;;;;;;;;4972208;28;20437;-62
2022/04/27 03:30:23;;;;;;;13.80;8.13;;;;;;;;;;4971910;28;20375;-62
2022/04/27 03:32:49;;;;;;;16.17;8.55;;;;;;;;;;4972025;28;20056;-62
2022/04/27 03:35:14;;;;;;;14.80;8.00;;;;;;;;;;4971909;28;20113;-62
2022/04/27 03:37:39;;;;;;;13.63;7.82;;;;;;;;;;4971906;28;20511;-64
2022/04/27 03:40:05;;;;;;;12.77;7.65;;;;;;;;;;4972130;28;20467;-63
2022/04/27 03:42:31;;;;;;;15.90;8.05;;;;;;;;;;4971803;28;20396;-62
2022/04/27 03:44:56;;;;;;;18.73;8.20;;;;;;;;;;4971376;28;20502;-63
2022/04/27 03:47:21;;;;;;;14.13;7.10;;;;;;;;;;4972596;28;20504;-63
2022/04/27 03:49:46;;;;;;;14.80;7.60;;;;;;;;;;4971526;28;20471;-62
2022/04/27 03:52:12;;;;;;;15.43;8.20;;;;;;;;;;4971885;28;20389;-63
2022/04/27 03:54:37;;;;;;;16.60;8.30;;;;;;;;;;4971723;28;20528;-63
2022/04/27 03:57:03;;;;;;;13.93;7.30;;;;;;;;;;4971994;28;20432;-63
2022/04/27 03:59:28;;;;;;;14.80;8.13;;;;;;;;;;4971436;28;20052;-63
2022/04/27 04:01:53;;;;;;;15.75;7.50;;;;;;;;;;4972698;28;20033;-63
2022/04/27 04:04:19;;;;;;;14.90;7.80;;;;;;;;;;4971480;28;20504;-63
2022/04/27 04:06:44;;;;;;;13.90;7.50;;;;;;;;;;4972063;28;20401;-63
2022/04/27 04:09:09;;;;;;;18.40;8.57;;;;;;;;;;4971698;28;20045;-64
2022/04/27 04:11:35;;;;;;;16.85;7.90;;;;;;;;;;4972165;28;20442;-62
2022/04/27 04:14:00;;;;;;;13.25;7.05;;;;;;;;;;4971075;28;20322;-63
2022/04/27 04:16:25;;;;;;;16.08;8.73;;;;;;;;;;4971478;28;20444;-63
2022/04/27 04:18:51;;;;;;;15.75;8.10;;;;;;;;;;4971012;28;20104;-63
2022/04/27 04:21:16;;;;;;;14.35;6.63;;;;;;;;;;4954027;28;20424;-63
2022/04/27 04:23:41;;;;;;;15.02;7.93;;;;;;;;;;4971314;28;20056;-62
2022/04/27 04:28:51;;;;;;;12.05;7.20;;;;;;;;;;4972892;28;20522;-63
2022/04/27 04:31:17;;;;;;;15.15;7.05;;;;;;;;;;4970976;28;20363;-64
2022/04/27 04:33:43;;;;;;;15.27;6.90;;;;;;;;;;4970723;28;20093;-63
2022/04/27 04:36:08;;;;;;;12.73;7.55;;;;;;;;;;4970778;28;20033;-63
2022/04/27 04:38:34;;;;;;;13.70;7.13;;;;;;;;;;4970713;28;20397;-63
2022/04/27 04:40:59;;;;;;;14.63;7.20;;;;;;;;;;4971285;28;20373;-63
2022/04/27 04:43:24;;;;;;;13.38;7.40;;;;;;;;;;4970803;28;20061;-63
2022/04/27 04:45:49;;;;;;;14.20;6.90;;;;;;;;;;4972602;28;20033;-64
2022/04/27 04:48:15;;;;;;;15.00;7.60;;;;;;;;;;4971004;28;20656;-62
2022/04/27 04:50:40;;;;;;;12.98;7.18;;;;;;;;;;4971143;28;20455;-64
2022/04/27 04:53:06;;;;;;;15.07;6.85;;;;;;;;;;4970657;28;20468;-64
2022/04/27 04:55:31;;;;;;;12.48;6.75;;;;;;;;;;4971432;28;20052;-63
2022/04/27 04:57:57;;;;;;;12.45;6.55;;;;;;;;;;4970701;28;20854;-64
2022/04/27 05:00:23;;;;;;;14.85;7.95;;;;;;;;;;4971066;28;20404;-63
2022/04/27 05:02:48;;;;;;;14.98;7.35;;;;;;;;;;4971529;28;20041;-63
2022/04/27 05:05:13;;;;;;;11.93;6.50;;;;;;;;;;4970242;28;20542;-64
2022/04/27 05:07:38;;;;;;;11.63;6.15;;;;;;;;;;4969862;28;20399;-63
2022/04/27 05:10:05;;;;;;;13.68;7.25;;;;;;;;;;4970984;28;20189;-63
2022/04/27 05:12:30;;;;;;;15.82;7.50;;;;;;;;;;4969945;28;20029;-62
2022/04/27 05:14:55;;;;;;;11.73;7.00;;;;;;;;;;4970547;28;20060;-63
2022/04/27 05:17:22;;;;;;;12.90;7.00;;;;;;;;;;4972040;28;20348;-64
2022/04/27 05:19:49;;;;;;;13.18;7.15;;;;;;;;;;4970573;28;20416;-63
2022/04/27 05:22:14;;;;;;;12.30;7.15;;;;;;;;;;4970189;28;20048;-64
2022/04/27 05:24:40;;;;;;;12.90;6.78;;;;;;;;;;4970010;28;20437;-64
2022/04/27 05:27:05;;;;;;;10.15;6.45;;;;;;;;;;4970073;28;20369;-63
2022/04/27 05:32:14;;;;;;;15.40;6.57;;;;;;;;;;4971109;28;20357;-63
2022/04/27 05:34:40;;;;;;;14.13;6.95;;;;;;;;;;4969220;28;20337;-64
2022/04/27 05:37:06;;;;;;;13.80;8.20;;;;;;;;;;4970017;28;20395;-63
2022/04/27 05:39:32;;;;;;;12.55;6.85;;;;;;;;;;4969785;28;20376;-65
2022/04/27 05:41:58;;;;;;;13.13;6.75;;;;;;;;;;4969610;28;20425;-62
2022/04/27 05:44:24;;;;;;;14.00;6.43;;;;;;;;;;4969752;28;20374;-63
2022/04/27 05:46:51;;;;;;;12.70;7.00;;;;;;;;;;4969923;28;20191;-62
2022/04/27 05:49:16;;;;;;;11.68;6.43;;;;;;;;;;4969639;28;20403;-64
2022/04/27 05:51:43;;;;;;;10.52;6.82;;;;;;;;;;4969684;28;20056;-63
2022/04/27 05:54:08;;;;;;;10.55;6.38;;;;;;;;;;4969198;28;20396;-64
2022/04/27 05:56:34;;;;;;;10.90;6.35;;;;;;;;;;4970243;28;20380;-64
2022/04/27 05:59:00;;;;;;;12.13;6.68;;;;;;;;;;4969865;28;20356;-64
2022/04/27 06:01:25;;;;;;;12.20;6.65;;;;;;;;;;4969507;28;20029;-64
2022/04/27 06:03:50;;;;;;;11.70;6.22;;;;;;;;;;4970618;28;20653;-63
2022/04/27 06:06:16;;;;;;;11.88;6.35;;;;;;;;;;4969422;28;20452;-64
2022/04/27 06:08:41;;;;;;;15.68;6.85;;;;;;;;;;4969251;28;20068;-63
2022/04/27 06:11:07;;;;;;;10.98;5.70;;;;;;;;;;4969455;28;20337;-63
2022/04/27 06:13:32;;;;;;;11.95;6.10;;;;;;;;;;4969738;28;20041;-63
2022/04/27 06:15:57;;;;;;;15.25;6.75;;;;;;;;;;4970501;28;20347;-64
2022/04/27 06:18:23;;;;;;;14.43;5.88;;;;;;;;;;4969091;28;20408;-63
2022/04/27 06:20:48;;;;;;;10.63;5.75;;;;;;;;;;4969734;28;20439;-64
2022/04/27 06:23:13;;;;;;;10.82;6.00;;;;;;;;;;4970108;28;20564;-64
2022/04/27 06:25:40;;;;;;;14.27;6.22;;;;;;;;;;4969414;28;20428;-64
2022/04/27 06:28:07;;;;;;;9.82;5.75;;;;;;;;;;4968887;28;20412;-64
2022/04/27 06:30:35;;;;;;;12.00;6.45;;;;;;;;;;4968870;28;20026;-63
2022/04/27 06:33:00;;;;;;;12.57;6.25;;;;;;;;;;4969254;28;20420;-63
2022/04/27 06:35:26;;;;;;;12.70;6.00;;;;;;;;;;4969605;28;20389;-64
2022/04/27 06:37:51;;;;;;;9.85;5.65;;;;;;;;;;4951262;28;20083;-64
2022/04/27 06:40:17;;;;;;;10.32;6.00;;;;;;;;;;4970848;28;20156;-63
2022/04/27 06:42:43;;;;;;;11.93;6.45;;;;;;;;;;4969063;28;20456;-64
2022/04/27 06:45:09;;;;;;;10.32;5.20;;;;;;;;;;4969895;28;20448;-63
2022/04/27 06:47:34;;;;;;;11.40;6.30;;;;;;;;;;4971859;28;20469;-63
2022/04/27 06:50:00;;;;;;;11.52;5.53;;;;;;;;;;4973129;28;20364;-63
2022/04/27 06:52:25;;;;;;;8.90;5.63;;;;;;;;;;4972830;28;20460;-63
2022/04/27 06:54:52;;;;;;;9.70;5.05;;;;;;;;;;4972477;28;20472;-63
2022/04/27 06:57:17;;;;;;;12.25;5.72;;;;;;;;;;4972712;28;20144;-64
2022/04/27 06:59:42;;;;;;;10.40;5.63;;;;;;;;;;4973561;28;20033;-64
2022/04/27 07:02:09;;;;;;;9.48;5.18;;;;;;;;;;4972299;28;20184;-64
2022/04/27 07:04:35;;;;;;;11.07;5.82;;;;;;;;;;4972788;28;20088;-62
2022/04/27 07:07:04;;;;;;;8.40;5.00;;;;;;;;;;4972298;28;20099;-63
2022/04/27 07:09:32;;;;;;;10.68;5.28;;;;;;;;;;4972453;28;20396;-62
2022/04/27 07:11:58;;;;;;;10.38;6.30;;;;;;;;;;4972384;28;20111;-64
2022/04/27 07:14:24;;;;;;;9.98;5.50;;;;;;;;;;4972488;28;20021;-64
2022/04/27 07:16:49;;;;;;;11.02;5.78;;;;;;;;;;4972542;28;20530;-64
2022/04/27 07:19:14;;;;;;;7.05;4.60;;;;;;;;;;4973089;28;20442;-63
2022/04/27 07:21:40;;;;;;;9.10;5.38;;;;;;;;;;4972590;28;20448;-63
2022/04/27 07:24:06;;;;;;;8.63;5.00;;;;;;;;;;4972621;28;20424;-63
2022/04/27 07:26:32;;;;;;;9.75;5.55;;;;;;;;;;4972410;28;20423;-64
2022/04/27 07:28:57;;;;;;;8.55;4.70;;;;;;;;;;4972516;28;20034;-63
2022/04/27 07:31:22;;;;;;;9.02;5.13;;;;;;;;;;4973286;28;20417;-63
2022/04/27 07:33:48;;;;;;;9.57;5.07;;;;;;;;;;4971716;28;20029;-63
2022/04/27 07:36:13;;;;;;;9.70;5.45;;;;;;;;;;4972152;28;20329;-64
2022/04/27 07:38:39;;;;;;;8.93;5.45;;;;;;;;;;4972192;28;20407;-63
2022/04/27 07:41:05;;;;;;;7.30;4.72;;;;;;;;;;4971852;28;20462;-62
2022/04/27 07:43:31;;;;;;;8.20;5.10;;;;;;;;;;4972372;28;20563;-64
2022/04/27 07:45:56;;;;;;;8.95;5.22;;;;;;;;;;4972283;28;20445;-64
2022/04/27 07:48:21;;;;;;;8.95;5.40;;;;;;;;;;4954136;28;20106;-64
2022/04/27 07:50:47;;;;;;;7.82;4.57;;;;;;;;;;4972899;28;20429;-64
2022/04/27 07:53:12;;;;;;;7.88;4.50;;;;;;;;;;4972038;28;20433;-63
2022/04/27 07:55:37;;;;;;;8.90;4.93;;;;;;;;;;4971423;28;20052;-63
2022/04/27 07:58:03;;;;;;;8.32;4.93;;;;;;;;;;4970955;28;20452;-64
2022/04/27 08:00:29;;;;;;;12.80;5.25;;;;;;;;;;4971355;28;20460;-63
2022/04/27 08:02:54;;;;;;;9.25;4.38;;;;;;;;;;4971774;28;20375;-64
2022/04/27 08:05:20;;;;;;;10.52;5.13;;;;;;;;;;4971649;28;20093;-65
2022/04/27 08:07:48;;;;;;;11.00;5.00;;;;;;;;;;4971352;28;20344;-64
2022/04/27 08:10:15;;;;;;;13.57;5.20;;;;;;;;;;4971592;28;20403;-63
2022/04/27 08:12:43;;;;;;;8.23;4.93;;;;;;;;;;4973497;28;20391;-64
2022/04/27 08:15:09;;;;;;;8.65;4.63;;;;;;;;;;4971376;28;20408;-64
2022/04/27 08:17:35;;;;;;;8.27;4.28;;;;;;;;;;4971433;28;20025;-64
2022/04/27 08:22:45;;;;;;;6.43;4.05;;;;;;;;;;4972083;28;20456;-64
2022/04/27 08:25:10;;;;;;;9.32;5.18;;;;;;;;;;4971138;28;20495;-64
2022/04/27 08:27:35;;;;;;;9.55;4.97;;;;;;;;;;4971422;28;20570;-63
2022/04/27 08:30:00;;;;;;;9.27;4.70;;;;;;;;;;4970916;28;20433;-64
2022/04/27 08:32:26;;;;;;;7.70;4.13;;;;;;;;;;4971268;28;20460;-63
2022/04/27 08:34:51;;;;;;;6.65;4.35;;;;;;;;;;4971290;28;20360;-64
2022/04/27 08:37:16;;;;;;;6.55;4.30;;;;;;;;;;4972057;28;20033;-64
2022/04/27 08:39:42;;;;;;;9.73;4.50;;;;;;;;;;4970900;28;20091;-64
2022/04/27 08:42:09;;;;;;;8.43;4.90;;;;;;;;;;4971765;28;20497;-64
2022/04/27 08:44:35;;;;;;;8.23;4.78;;;;;;;;;;4972143;28;20363;-64
2022/04/27 08:47:01;;;;;;;6.93;4.03;;;;;;;;;;4952934;28;20408;-64
2022/04/27 08:49:26;;;;;;;9.38;4.25;;;;;;;;;;4953775;28;20326;-64
2022/04/27 08:51:52;;;;;;;7.45;3.92;;;;;;;;;;4970425;28;20472;-64
2022/04/27 08:54:18;;;;;;;8.82;4.43;;;;;;;;;;4953051;28;20336;-63
2022/04/27 08:56:43;;;;;;;8.02;4.53;;;;;;;;;;4952983;28;20499;-64
2022/04/27 08:59:08;;;;;;;9.27;4.85;;;;;;;;;;4971384;28;20498;-63
2022/04/27 09:01:34;;;;;;;7.68;4.45;;;;;;;;;;4970717;28;20453;-64
2022/04/27 09:04:16;;;;;;;6.85;3.53;;;;;;;;;;4970545;28;20447;-64
2022/04/27 09:06:41;;;;;;;8.23;4.60;;;;;;;;;;4970507;28;20429;-63
2022/04/27 09:09:10;;;;;;;6.45;3.95;;;;;;;;;;4970330;28;20436;-64
2022/04/27 09:11:37;;;;;;;7.07;4.47;;;;;;;;;;4971606;28;20404;-63
2022/04/27 09:14:04;;;;;;;8.50;4.05;;;;;;;;;;4971071;28;20407;-64
2022/04/27 09:22:07;;;;;;;7.38;4.47;;;;;;;;;;4971886;28;20376;-64
2022/04/27 09:24:53;;;;;;;7.90;4.68;;;;;;;;;;4970260;28;20417;-64
2022/04/27 09:27:23;;;;;;;10.02;4.22;;;;;;;;;;4970861;28;20348;-64
2022/04/27 09:30:02;;;;;;;6.38;4.07;;;;;;;;;;4970333;28;20436;-64
2022/04/27 09:32:27;;;;;;;8.52;4.35;;;;;;;;;;4969880;28;20507;-63
2022/04/27 09:34:53;;;;;;;8.30;4.00;;;;;;;;;;4972005;28;20526;-63
2022/04/27 09:37:21;;;;;;;7.30;3.65;;;;;;;;;;4970336;28;20326;-63
2022/04/27 09:40:04;;;;;;;8.15;4.18;;;;;;;;;;4969876;28;20052;-63
2022/04/27 09:42:35;;;;;;;6.05;3.72;;;;;;;;;;4969791;28;20464;-63
2022/04/27 09:45:20;;;;;;;7.13;4.13;;;;;;;;;;4970832;28;20042;-63
2022/04/27 09:47:53;;;;;;;7.55;3.70;;;;;;;;;;4969911;28;20319;-64
2022/04/27 09:50:19;;;;;;;7.40;4.43;;;;;;;;;;4969357;28;20456;-63
2022/04/27 09:52:44;;;;;;;6.07;3.80;;;;;;;;;;4969520;28;20544;-63
2022/04/27 09:55:11;;;;;;;6.75;4.28;;;;;;;;;;4970119;28;20540;-63
2022/04/27 09:57:40;;;;;;;8.55;4.10;;;;;;;;;;4971118;28;20352;-63
2022/04/27 10:00:07;;;;;;;6.40;3.97;;;;;;;;;;4970217;28;20084;-63
2022/04/27 10:02:34;;;;;;;6.85;4.55;;;;;;;;;;4970726;28;20361;-64
2022/04/27 10:05:00;;;;;;;6.00;3.92;;;;;;;;;;4969274;28;20305;-62
2022/04/27 10:07:25;;;;;;;7.90;3.75;;;;;;;;;;4969705;28;20087;-63
2022/04/27 10:09:52;;;;;;;7.55;3.90;;;;;;;;;;4969040;28;20468;-63
2022/04/27 10:12:17;;;;;;;8.50;3.90;;;;;;;;;;4969368;28;20421;-64
2022/04/27 10:14:44;;;;;;;6.68;3.85;;;;;;;;;;4969421;28;20440;-63
2022/04/27 10:17:11;;;;;;;5.55;3.33;;;;;;;;;;4970511;28;20294;-63
2022/04/27 10:19:48;;;;;;;6.95;4.13;;;;;;;;;;4969395;28;20448;-64
2022/04/27 10:22:35;;;;;;;6.53;4.00;;;;;;;;;;4968425;28;20490;-63
2022/04/27 10:25:09;;;;;;;8.75;4.15;;;;;;;;;;4969524;28;20444;-63
2022/04/27 10:27:36;;;;;;;5.57;3.75;;;;;;;;;;4969267;28;20056;-63
2022/04/27 10:30:09;;;;;;;6.40;4.15;;;;;;;;;;4969074;28;20341;-63
2022/04/27 10:32:48;;;;;;;5.85;3.13;;;;;;;;;;4969001;28;20476;-63
2022/04/27 10:35:14;;;;;;;;;;;;;;;;;;4970088;28;20412;-64
2022/04/27 10:37:54;;;;;;;6.70;3.63;;;;;;;;;;4968917;28;20225;-64
2022/04/27 10:40:35;;;;;;;6.00;3.80;;;;;;;;;;4968937;28;20334;-64
2022/04/27 10:43:04;;;;;;;5.72;3.60;;;;;;;;;;4970123;28;20433;-64
2022/04/27 10:45:29;;;;;;;6.63;3.58;;;;;;;;;;4951253;28;20037;-63
2022/04/27 10:47:55;;;;;;;5.45;3.28;;;;;;;;;;4969522;28;20447;-64
2022/04/27 10:50:28;;;;;;;5.80;3.13;;;;;;;;;;4968933;28;20476;-64
2022/04/27 10:52:57;;;;;;;8.13;4.32;;;;;;;;;;4968554;28;20433;-63
2022/04/27 10:55:34;;;;;;;6.03;3.90;;;;;;;;;;4969731;28;20456;-63
2022/04/27 10:58:31;;;;;;;8.25;3.72;;;;;;;;;;4970082;28;20428;-64
2022/04/27 11:01:02;;;;;;;5.88;3.47;;;;;;;;;;4950194;28;20357;-64
2022/04/27 11:03:28;;;;;;;6.60;3.35;;;;;;;;;;4969471;28;20425;-64
2022/04/27 11:05:57;;;;;;;5.95;3.60;;;;;;;;;;4969042;28;20451;-64
2022/04/27 11:08:34;;;;;;;6.05;3.47;;;;;;;;;;4968674;28;20408;-64
2022/04/27 11:11:06;;;;;;;8.73;3.90;;;;;;;;;;4968892;28;20467;-64
2022/04/27 11:13:36;;;;;;;5.60;3.75;;;;;;;;;;4969640;28;20414;-65
2022/04/27 11:16:08;;;;;;;5.10;3.50;;;;;;;;;;4968468;28;20421;-63
2022/04/27 11:18:55;;;;;;;4.20;2.90;;;;;;;;;;4968873;28;20322;-64
2022/04/27 11:21:21;;;;;;;6.72;3.78;;;;;;;;;;4968932;28;20393;-64
2022/04/27 11:23:47;;;;;;;5.20;3.47;;;;;;;;;;4969040;28;20336;-64
2022/04/27 11:26:16;;;;;;;5.80;3.72;;;;;;;;;;4969186;28;20343;-63
2022/04/27 11:28:45;;;;;;;4.72;3.00;;;;;;;;;;4968814;28;20366;-64
2022/04/27 11:31:12;;;;;;;5.07;3.47;;;;;;;;;;4969018;28;20357;-64
2022/04/27 11:33:41;;;;;;;5.25;3.10;;;;;;;;;;4970982;28;20432;-64
2022/04/27 11:36:06;;;;;;;4.22;2.75;;;;;;;;;;4973431;28;20359;-64
2022/04/27 11:38:36;;;;;;;5.05;3.10;;;;;;;;;;4971954;28;20341;-64
2022/04/27 11:41:03;;;;;;;4.70;3.13;;;;;;;;;;4972218;28;20432;-64
2022/04/27 11:43:31;;;;;;;6.72;3.50;;;;;;;;;;4972216;28;20364;-64
2022/04/27 11:45:57;;;;;;;6.20;3.20;;;;;;;;;;4972779;28;20465;-64
2022/04/27 11:48:23;;;;;;;5.82;3.17;;;;;;;;;;4971953;28;20029;-64
2022/04/27 11:50:48;;;;;;;4.38;2.42;;;;;;;;;;4972033;28;20487;-63
2022/04/27 11:53:15;;;;;;;4.57;3.08;;;;;;;;;;4953763;28;20405;-64
2022/04/27 11:55:41;;;;;;;4.72;3.13;;;;;;;;;;4971831;28;20493;-63
2022/04/27 11:58:10;;;;;;;4.93;3.00;;;;;;;;;;4972050;28;20345;-64
2022/04/27 12:00:35;;;;;;;4.72;3.13;;;;;;;;;;4971700;28;20360;-64
2022/04/27 12:03:06;;;;;;;4.10;2.70;;;;;;;;;;4971620;28;20025;-63
2022/04/27 12:05:38;;;;;;;4.63;3.17;;;;;;;;;;4971488;28;20440;-64
2022/04/27 12:08:11;;;;;;;5.40;3.00;;;;;;;;;;4971609;28;20021;-64
2022/04/27 12:10:37;;;;;;;4.90;2.88;;;;;;;;;;4971819;28;20404;-64
2022/04/27 12:13:03;;;;;;;6.22;3.50;;;;;;;;;;4971752;28;20435;-63
2022/04/27 12:15:28;;;;;;;5.85;2.97;;;;;;;;;;4953857;28;20320;-64
2022/04/27 12:17:58;;;;;;;8.65;2.80;;;;;;;;;;4971728;28;20471;-64
2022/04/27 12:20:36;;;;;;;4.78;2.83;;;;;;;;;;4971556;28;20295;-64
2022/04/27 12:23:09;;;;;;;4.05;2.65;;;;;;;;;;4971423;28;20441;-64
2022/04/27 12:25:46;;;;;;;5.47;3.17;;;;;;;;;;4971489;28;20444;-64
2022/04/27 12:28:30;;;;;;;6.03;2.83;;;;;;;;;;4971032;28;20486;-64
2022/04/27 12:31:02;;;;;;;5.03;3.15;;;;;;;;;;4971014;28;20511;-64
2022/04/27 12:33:29;;;;;;;5.63;3.15;;;;;;;;;;4971838;28;20298;-64
2022/04/27 12:39:04;;;;;;;4.22;2.72;;;;;;;;;;4972034;28;20387;-63
2022/04/27 12:41:50;;;;;;;5.05;3.08;;;;;;;;;;4970823;28;20096;-64
2022/04/27 12:44:35;;;;;;;6.13;2.65;;;;;;;;;;4970127;28;20337;-64
2022/04/27 12:47:07;;;;;;;4.20;3.00;;;;;;;;;;4971568;28;20452;-64
2022/04/27 12:49:34;;;;;;;4.32;2.78;;;;;;;;;;4970795;28;20025;-64
2022/04/27 12:52:26;;;;;;;4.65;2.85;;;;;;;;;;4970987;28;20433;-64
2022/04/27 12:55:04;;;;;;;4.05;2.67;;;;;;;;;;4970709;28;20475;-63
2022/04/27 12:57:51;;;;;;;4.82;2.80;;;;;;;;;;4970349;28;20475;-63
2022/04/27 13:00:45;;;;;;;5.18;2.80;;;;;;;;;;4971758;28;20309;-64
2022/04/27 13:03:12;;;;;;;5.63;3.47;;;;;;;;;;4970747;28;20448;-64
2022/04/27 13:05:40;;;;;;;4.15;2.50;;;;;;;;;;4970810;28;20367;-64
2022/04/27 13:08:06;;;;;;;4.97;3.05;;;;;;;;;;4970562;28;20384;-63
2022/04/27 13:13:17;;;;;;;4.72;2.72;;;;;;;;;;4970378;28;20419;-64
2022/04/27 13:15:43;;;;;;;4.32;2.40;;;;;;;;;;4970137;28;20452;-63
2022/04/27 13:18:08;;;;;;;4.65;2.63;;;;;;;;;;4970501;28;20409;-64
2022/04/27 13:20:34;;;;;;;4.82;2.88;;;;;;;;;;4970234;28;20025;-63
2022/04/27 13:22:59;;;;;;;3.95;2.45;;;;;;;;;;4970305;28;20440;-64
2022/04/27 13:25:25;;;;;;;3.95;2.45;;;;;;;;;;4970122;28;20045;-64
2022/04/27 13:27:50;;;;;;;3.60;2.22;;;;;;;;;;4970251;28;20029;-64
2022/04/27 13:30:15;;;;;;;3.97;2.60;;;;;;;;;;4969900;28;20516;-64
2022/04/27 13:32:41;;;;;;;6.00;3.42;;;;;;;;;;4958255;28;20464;-64
2022/04/27 13:35:07;;;;;;;3.47;2.38;;;;;;;;;;4969822;28;20337;-63
2022/04/27 13:37:33;;;;;;;4.07;2.45;;;;;;;;;;4969788;28;20495;-64
2022/04/27 13:39:58;;;;;;;5.50;2.85;;;;;;;;;;4970090;28;20508;-65
2022/04/27 13:42:23;;;;;;;5.15;2.88;;;;;;;;;;4969464;28;20685;-63
2022/04/27 13:44:49;;;;;;;4.43;2.88;;;;;;;;;;4970304;28;20420;-63
2022/04/27 13:47:14;;;;;;;4.50;2.60;;;;;;;;;;4969856;28;20436;-64
2022/04/27 13:49:40;;;;;;;4.35;2.47;;;;;;;;;;4969957;28;20449;-64
2022/04/27 13:52:05;;;;;;;4.22;2.65;;;;;;;;;;4969831;28;20353;-64
2022/04/27 13:54:31;;;;;;;4.38;2.97;;;;;;;;;;4970048;28;20348;-63
2022/04/27 13:56:56;;;;;;;4.60;2.55;;;;;;;;;;4951265;28;20377;-64
2022/04/27 13:59:21;;;;;;;4.65;2.28;;;;;;;;;;4969876;28;20465;-64
2022/04/27 14:01:47;;;;;;;3.30;2.38;;;;;;;;;;4969779;28;20452;-64
2022/04/27 14:04:12;;;;;;;4.47;2.83;;;;;;;;;;4969754;28;20543;-64
2022/04/27 14:06:37;;;;;;;5.25;2.50;;;;;;;;;;4969263;28;20414;-64
2022/04/27 14:09:03;;;;;;;4.05;2.70;;;;;;;;;;4969271;28;20366;-63
2022/04/27 14:14:13;;;;;;;4.55;2.80;;;;;;;;;;4969481;28;20356;-63
2022/04/27 14:19:22;;;;;;;4.57;2.65;;;;;;;;;;4969342;28;20103;-64
2022/04/27 14:21:47;;;;;;;4.30;2.33;;;;;;;;;;4969377;28;20030;-63
2022/04/27 14:24:13;;;;;;;3.92;2.35;;;;;;;;;;4969463;28;20087;-65
2022/04/27 14:26:38;;;;;;;5.45;2.85;;;;;;;;;;4952546;28;20460;-64
2022/04/27 14:29:04;;;;;;;3.60;2.33;;;;;;;;;;4968934;28;20427;-64
2022/04/27 14:31:30;;;;;;;3.50;2.47;;;;;;;;;;4969631;28;20446;-64
2022/04/27 14:33:55;;;;;;;5.15;2.65;;;;;;;;;;4969014;28;20064;-64
2022/04/27 14:36:22;;;;;;;4.85;2.42;;;;;;;;;;4969066;28;20025;-63
2022/04/27 14:38:47;;;;;;;3.53;2.35;;;;;;;;;;4969815;28;20480;-64
2022/04/27 14:41:16;;;;;;;4.85;2.80;;;;;;;;;;4970267;28;20405;-65
2022/04/27 14:43:42;;;;;;;4.45;2.40;;;;;;;;;;4968720;28;20508;-64
2022/04/27 14:46:07;;;;;;;3.30;2.10;;;;;;;;;;4969500;28;20389;-64
2022/04/27 14:48:34;;;;;;;3.17;2.40;;;;;;;;;;4969136;28;20069;-64
2022/04/27 14:50:59;;;;;;;4.45;2.50;;;;;;;;;;4968899;28;20353;-64
2022/04/27 14:53:24;;;;;;;4.05;2.33;;;;;;;;;;4969161;28;20420;-64
2022/04/27 14:55:50;;;;;;;3.65;2.40;;;;;;;;;;4970132;28;20435;-64
2022/04/27 14:58:16;;;;;;;3.55;2.40;;;;;;;;;;4969108;28;20057;-64
2022/04/27 15:00:41;;;;;;;3.95;2.38;;;;;;;;;;4968732;28;20026;-64
2022/04/27 15:03:06;;;;;;;2.80;2.17;;;;;;;;;;4969038;28;20048;-64
2022/04/27 15:05:32;;;;;;;3.03;2.05;;;;;;;;;;4969589;28;20088;-64
2022/04/27 15:07:57;;;;;;;3.53;2.22;;;;;;;;;;4970923;28;20407;-63
2022/04/27 15:10:23;;;;;;;3.75;2.50;;;;;;;;;;4972867;28;20057;-64
2022/04/27 15:12:48;;;;;;;3.50;2.22;;;;;;;;;;4974115;28;20474;-64